createdAt,value
2023-07-19T00:00:42.013Z,18.50
2023-07-19T00:03:10.440Z,18.40
2023-07-19T00:05:38.563Z,18.40
2023-07-19T00:08:05.965Z,18.30
2023-07-19T00:10:34.168Z,18.30
2023-07-19T00:13:02.382Z,18.30
2023-07-19T00:15:32.094Z,18.30
2023-07-19T00:18:00.191Z,18.30
2023-07-19T00:20:28.704Z,18.30
2023-07-19T00:22:56.757Z,18.30
2023-07-19T00:25:24.868Z,18.40
2023-07-19T00:27:52.978Z,18.40
2023-07-19T00:30:20.999Z,18.40
2023-07-19T00:32:50.609Z,18.40
2023-07-19T00:35:18.942Z,18.40
2023-07-19T00:37:47.010Z,18.40
2023-07-19T00:40:15.333Z,18.30
2023-07-19T00:42:43.414Z,18.40
2023-07-19T00:45:12.210Z,18.40
2023-07-19T00:47:41.754Z,18.30
2023-07-19T00:50:12.051Z,18.40
2023-07-19T00:52:40.670Z,18.40
2023-07-19T00:55:10.094Z,18.40
2023-07-19T00:57:38.427Z,18.40
2023-07-19T01:00:08.772Z,18.30
2023-07-19T01:02:37.491Z,18.20
2023-07-19T01:05:06.105Z,18.20
2023-07-19T01:07:35.789Z,18.20
2023-07-19T01:10:03.900Z,18.20
2023-07-19T01:12:31.964Z,18.20
2023-07-19T01:15:00.041Z,18.10
2023-07-19T01:17:28.077Z,18.10
2023-07-19T01:19:56.134Z,18.00
2023-07-19T01:22:24.516Z,18.00
2023-07-19T01:24:53.979Z,18.00
2023-07-19T01:27:23.472Z,18.00
2023-07-19T01:29:51.945Z,17.90
2023-07-19T01:32:20.398Z,17.90
2023-07-19T01:34:48.490Z,17.90
2023-07-19T01:37:16.592Z,17.90
2023-07-19T01:39:45.619Z,17.90
2023-07-19T01:42:15.105Z,17.80
2023-07-19T01:44:43.192Z,17.80
2023-07-19T01:47:11.387Z,17.80
2023-07-19T01:49:41.241Z,17.80
2023-07-19T01:52:09.830Z,17.80
2023-07-19T01:54:38.031Z,17.80
2023-07-19T01:57:06.883Z,17.80
2023-07-19T01:59:36.394Z,17.70
2023-07-19T02:02:04.652Z,17.70
2023-07-19T02:04:33.270Z,17.70
2023-07-19T02:07:01.587Z,17.70
2023-07-19T02:09:29.750Z,17.70
2023-07-19T02:11:57.932Z,17.60
2023-07-19T02:14:26.141Z,17.70
2023-07-19T02:16:55.619Z,17.60
2023-07-19T02:19:23.859Z,17.60
2023-07-19T02:21:51.942Z,17.60
2023-07-19T02:24:20.005Z,17.60
2023-07-19T02:26:48.100Z,17.60
2023-07-19T02:29:16.228Z,17.60
2023-07-19T02:31:44.352Z,17.60
2023-07-19T02:34:15.240Z,17.60
2023-07-19T02:36:43.434Z,17.60
2023-07-19T02:39:11.483Z,17.60
2023-07-19T02:41:41.481Z,17.70
2023-07-19T02:44:10.160Z,17.70
2023-07-19T02:46:38.329Z,17.70
2023-07-19T02:49:06.580Z,17.70
2023-07-19T02:51:36.076Z,17.70
2023-07-19T02:54:04.270Z,17.80
2023-07-19T02:56:32.426Z,17.80
2023-07-19T02:59:00.489Z,17.80
2023-07-19T03:01:28.860Z,17.80
2023-07-19T03:03:58.425Z,17.80
2023-07-19T03:06:26.486Z,17.80
2023-07-19T03:08:55.946Z,17.90
2023-07-19T03:11:24.734Z,17.90
2023-07-19T03:13:52.806Z,18.00
2023-07-19T03:16:20.865Z,17.90
2023-07-19T03:18:49.004Z,17.80
2023-07-19T03:21:17.092Z,17.80
2023-07-19T03:23:45.167Z,17.70
2023-07-19T03:26:14.632Z,17.70
2023-07-19T03:28:42.739Z,17.60
2023-07-19T03:31:13.525Z,17.50
2023-07-19T03:33:41.695Z,17.50
2023-07-19T03:36:09.697Z,17.50
2023-07-19T03:38:37.779Z,17.40
2023-07-19T03:41:08.993Z,17.40
2023-07-19T03:43:38.649Z,17.40
2023-07-19T03:46:07.538Z,17.40
2023-07-19T03:48:37.163Z,17.60
2023-07-19T03:51:05.788Z,17.70
2023-07-19T03:53:33.950Z,17.80
2023-07-19T03:56:02.280Z,17.80
2023-07-19T03:58:30.463Z,17.80
2023-07-19T04:01:00.711Z,17.90
2023-07-19T04:03:29.762Z,18.00
2023-07-19T04:05:59.964Z,18.00
2023-07-19T04:08:28.194Z,18.00
2023-07-19T04:10:56.270Z,18.10
2023-07-19T04:13:24.405Z,18.10
2023-07-19T04:15:52.447Z,18.10
2023-07-19T04:18:21.927Z,18.20
2023-07-19T04:20:58.103Z,18.20
2023-07-19T04:23:26.222Z,18.20
2023-07-19T04:25:54.299Z,18.20
2023-07-19T04:28:22.351Z,18.20
2023-07-19T04:30:50.682Z,18.20
2023-07-19T04:33:18.961Z,18.20
2023-07-19T04:35:48.633Z,18.40
2023-07-19T04:38:16.742Z,18.50
2023-07-19T04:40:44.851Z,18.60
2023-07-19T04:43:12.902Z,18.60
2023-07-19T04:45:41.024Z,18.70
2023-07-19T04:48:09.142Z,18.70
2023-07-19T04:50:38.472Z,18.80
2023-07-19T04:53:07.895Z,18.70
2023-07-19T04:55:36.012Z,18.80
2023-07-19T04:58:04.122Z,18.80
2023-07-19T05:00:32.292Z,18.80
2023-07-19T05:03:00.389Z,18.90
2023-07-19T05:05:28.667Z,19.00
2023-07-19T05:07:56.737Z,19.00
2023-07-19T05:10:26.286Z,19.10
2023-07-19T05:12:54.660Z,19.30
2023-07-19T05:15:22.754Z,19.40
2023-07-19T05:17:51.081Z,19.60
2023-07-19T05:20:19.623Z,19.70
2023-07-19T05:22:47.917Z,19.70
2023-07-19T05:25:16.070Z,19.70
2023-07-19T05:27:45.576Z,19.80
2023-07-19T05:30:14.576Z,19.80
2023-07-19T05:32:42.909Z,19.70
2023-07-19T05:35:11.231Z,19.70
2023-07-19T05:37:40.401Z,19.80
2023-07-19T05:40:10.745Z,19.90
2023-07-19T05:42:38.851Z,20.00
2023-07-19T05:45:09.757Z,20.10
2023-07-19T05:47:38.126Z,20.10
2023-07-19T05:50:07.429Z,20.10
2023-07-19T05:52:35.547Z,20.20
2023-07-19T05:55:06.526Z,20.40
2023-07-19T05:57:35.211Z,20.50
2023-07-19T06:00:19.436Z,20.50
2023-07-19T06:05:22.823Z,20.40
2023-07-19T06:07:50.941Z,20.30
2023-07-19T06:10:19.193Z,20.50
2023-07-19T06:12:48.796Z,21.20
2023-07-19T06:15:17.156Z,22.00
2023-07-19T06:17:45.735Z,23.00
2023-07-19T06:20:15.727Z,23.80
2023-07-19T06:22:43.851Z,24.60
2023-07-19T06:25:12.987Z,25.20
2023-07-19T06:27:41.640Z,25.70
2023-07-19T06:30:10.636Z,25.70
2023-07-19T06:32:38.992Z,25.60
2023-07-19T06:35:10.256Z,25.70
2023-07-19T06:37:39.822Z,26.00
2023-07-19T06:40:09.549Z,26.40
2023-07-19T06:42:38.492Z,26.90
2023-07-19T06:45:07.686Z,26.80
2023-07-19T06:47:35.797Z,26.70
2023-07-19T06:50:04.398Z,26.70
2023-07-19T06:52:32.497Z,26.20
2023-07-19T06:55:02.140Z,26.40
2023-07-19T06:57:30.253Z,26.70
2023-07-19T06:59:59.315Z,27.00
2023-07-19T07:02:27.665Z,27.00
2023-07-19T07:04:55.736Z,27.20
2023-07-19T07:07:23.872Z,26.90
2023-07-19T07:09:52.024Z,26.50
2023-07-19T07:12:21.694Z,26.50
2023-07-19T07:14:51.128Z,27.10
2023-07-19T07:17:19.976Z,27.90
2023-07-19T07:19:48.246Z,28.80
2023-07-19T07:22:16.728Z,29.60
2023-07-19T07:24:45.149Z,30.50
2023-07-19T07:27:13.642Z,31.20
2023-07-19T07:29:43.964Z,30.80
2023-07-19T07:32:13.163Z,31.10
2023-07-19T07:34:42.450Z,31.60
2023-07-19T07:37:11.432Z,32.30
2023-07-19T07:39:39.607Z,32.50
2023-07-19T07:42:09.775Z,32.90
2023-07-19T07:44:37.839Z,33.60
2023-07-19T07:47:07.839Z,33.90
2023-07-19T07:49:36.016Z,32.80
2023-07-19T07:52:04.318Z,33.80
2023-07-19T07:54:32.643Z,34.30
2023-07-19T07:57:01.562Z,34.80
2023-07-19T07:59:29.668Z,34.50
2023-07-19T08:01:57.702Z,34.20
2023-07-19T08:04:29.695Z,34.50
2023-07-19T08:06:57.963Z,34.80
2023-07-19T08:09:26.191Z,34.80
2023-07-19T08:11:54.294Z,35.10
2023-07-19T08:14:23.482Z,35.00
2023-07-19T08:16:52.818Z,35.10
2023-07-19T08:19:21.089Z,34.20
2023-07-19T08:21:50.559Z,34.00
2023-07-19T08:24:18.738Z,33.80
2023-07-19T08:26:46.939Z,34.30
2023-07-19T08:29:15.187Z,34.40
2023-07-19T08:31:43.711Z,34.80
2023-07-19T08:34:11.926Z,34.70
2023-07-19T08:36:40.135Z,34.30
2023-07-19T08:39:10.467Z,34.60
2023-07-19T08:41:38.683Z,35.40
2023-07-19T08:44:07.022Z,35.90
2023-07-19T08:46:38.526Z,35.80
2023-07-19T08:49:06.763Z,35.70
2023-07-19T08:51:36.518Z,34.50
2023-07-19T08:54:04.923Z,33.40
2023-07-19T08:56:35.540Z,32.80
2023-07-19T08:59:04.513Z,32.90
2023-07-19T09:01:32.642Z,32.20
2023-07-19T09:04:00.879Z,32.30
2023-07-19T09:06:31.556Z,31.50
2023-07-19T09:09:00.320Z,31.70
2023-07-19T09:11:28.592Z,31.90
2023-07-19T09:14:01.487Z,32.80
2023-07-19T09:16:30.746Z,33.80
2023-07-19T09:19:00.448Z,33.90
2023-07-19T09:21:35.248Z,34.40
2023-07-19T09:24:06.431Z,34.50
2023-07-19T09:26:51.093Z,34.00
2023-07-19T09:29:21.441Z,34.00
2023-07-19T09:31:57.331Z,33.60
2023-07-19T09:34:28.293Z,32.90
2023-07-19T09:36:56.785Z,32.20
2023-07-19T09:39:25.405Z,32.60
2023-07-19T09:41:55.536Z,33.20
2023-07-19T09:44:25.614Z,33.80
2023-07-19T09:46:55.637Z,33.90
2023-07-19T09:49:24.655Z,33.80
2023-07-19T09:51:57.257Z,33.90
2023-07-19T09:54:27.553Z,34.10
2023-07-19T09:56:55.769Z,34.40
2023-07-19T09:59:29.938Z,34.40
2023-07-19T10:01:58.720Z,34.40
2023-07-19T10:04:28.119Z,34.40
2023-07-19T10:07:08.442Z,35.10
2023-07-19T10:09:41.173Z,35.30
2023-07-19T10:12:23.587Z,34.90
2023-07-19T10:14:57.066Z,35.20
2023-07-19T10:17:25.969Z,34.90
2023-07-19T10:20:09.799Z,35.10
2023-07-19T10:23:02.488Z,35.30
2023-07-19T10:25:35.536Z,36.00
2023-07-19T10:28:06.590Z,35.60
2023-07-19T10:30:56.677Z,36.00
2023-07-19T10:33:27.370Z,35.50
2023-07-19T10:35:56.621Z,35.70
2023-07-19T10:38:26.862Z,35.60
2023-07-19T10:40:59.182Z,35.20
2023-07-19T10:43:46.002Z,36.00
2023-07-19T10:46:19.638Z,35.90
2023-07-19T10:48:51.035Z,34.70
2023-07-19T10:51:21.601Z,34.00
2023-07-19T10:53:57.949Z,34.10
2023-07-19T10:56:27.878Z,34.50
2023-07-19T10:59:00.540Z,34.80
2023-07-19T11:01:31.605Z,35.00
2023-07-19T11:04:04.745Z,35.30
2023-07-19T11:06:34.293Z,35.40
2023-07-19T11:09:06.680Z,35.30
2023-07-19T11:11:38.498Z,34.70
2023-07-19T11:14:07.533Z,34.10
2023-07-19T11:16:37.565Z,34.20
2023-07-19T11:19:06.389Z,34.20
2023-07-19T11:21:34.844Z,33.20
2023-07-19T11:24:04.041Z,32.60
2023-07-19T11:26:32.318Z,32.60
2023-07-19T11:29:01.553Z,32.30
2023-07-19T11:31:35.608Z,32.20
2023-07-19T11:34:08.004Z,32.10
2023-07-19T11:36:36.633Z,32.10
2023-07-19T11:39:05.026Z,32.00
2023-07-19T11:41:33.649Z,31.90
2023-07-19T11:44:04.617Z,31.50
2023-07-19T11:46:32.806Z,31.50
2023-07-19T11:49:01.271Z,31.70
2023-07-19T11:51:30.785Z,31.50
2023-07-19T11:53:59.255Z,31.60
2023-07-19T11:56:29.534Z,31.50
2023-07-19T11:58:58.884Z,31.50
2023-07-19T12:01:27.632Z,31.50
2023-07-19T12:04:01.276Z,31.60
2023-07-19T12:06:32.348Z,31.50
2023-07-19T12:09:00.820Z,31.30
2023-07-19T12:11:29.231Z,31.30
2023-07-19T12:13:59.183Z,31.50
2023-07-19T12:16:27.765Z,31.40
2023-07-19T12:18:56.137Z,31.50
2023-07-19T12:21:25.447Z,31.50
2023-07-19T12:23:58.899Z,31.40
2023-07-19T12:28:59.428Z,31.50
2023-07-19T12:31:28.026Z,31.50
2023-07-19T12:33:58.099Z,31.30
2023-07-19T12:36:26.437Z,31.30
2023-07-19T12:38:57.460Z,31.30
2023-07-19T12:41:25.695Z,31.40
2023-07-19T12:43:53.813Z,31.50
2023-07-19T12:46:23.611Z,31.50
2023-07-19T12:48:52.351Z,31.40
2023-07-19T12:51:21.109Z,31.00
2023-07-19T12:53:49.306Z,30.80
2023-07-19T12:56:19.773Z,30.70
2023-07-19T12:58:48.010Z,31.10
2023-07-19T13:01:16.632Z,31.00
2023-07-19T13:03:45.014Z,31.20
2023-07-19T13:06:14.664Z,31.10
2023-07-19T13:08:42.783Z,31.00
2023-07-19T13:11:10.959Z,31.10
2023-07-19T13:13:40.590Z,30.70
2023-07-19T13:16:08.805Z,30.20
2023-07-19T13:18:37.086Z,29.90
2023-07-19T13:21:05.399Z,30.20
2023-07-19T13:23:33.748Z,30.50
2023-07-19T13:26:01.917Z,30.80
2023-07-19T13:28:30.783Z,30.90
2023-07-19T13:31:01.377Z,31.00
2023-07-19T13:33:29.823Z,31.00
2023-07-19T13:35:59.400Z,31.00
2023-07-19T13:38:28.890Z,31.10
2023-07-19T13:40:57.025Z,31.30
2023-07-19T13:43:25.330Z,31.30
2023-07-19T13:45:53.763Z,31.20
2023-07-19T13:48:23.335Z,31.30
2023-07-19T13:50:51.512Z,31.30
2023-07-19T13:53:20.951Z,31.40
2023-07-19T13:55:49.137Z,31.30
2023-07-19T13:58:17.446Z,31.30
2023-07-19T14:00:45.604Z,31.20
2023-07-19T14:03:14.401Z,31.50
2023-07-19T14:05:44.057Z,31.50
2023-07-19T14:08:12.328Z,31.10
2023-07-19T14:10:40.472Z,31.10
2023-07-19T14:13:09.190Z,31.00
2023-07-19T14:15:37.288Z,30.80
2023-07-19T14:18:05.501Z,30.80
2023-07-19T14:20:33.839Z,30.70
2023-07-19T14:23:03.439Z,30.70
2023-07-19T14:25:32.049Z,30.30
2023-07-19T14:28:00.143Z,30.50
2023-07-19T14:30:28.312Z,30.60
2023-07-19T14:32:56.558Z,30.80
2023-07-19T14:35:24.723Z,30.90
2023-07-19T14:37:53.287Z,30.80
2023-07-19T14:40:22.950Z,30.80
2023-07-19T14:42:52.212Z,30.60
2023-07-19T14:45:21.051Z,30.60
2023-07-19T14:47:49.465Z,30.40
2023-07-19T14:50:17.935Z,30.50
2023-07-19T14:52:46.920Z,30.20
2023-07-19T14:55:15.113Z,30.20
2023-07-19T14:57:45.307Z,30.10
2023-07-19T15:00:14.831Z,30.10
2023-07-19T15:02:43.443Z,30.10
2023-07-19T15:05:12.148Z,29.80
2023-07-19T15:07:44.332Z,29.80
2023-07-19T15:10:13.233Z,29.80
2023-07-19T15:12:43.959Z,29.80
2023-07-19T15:15:14.292Z,29.90
2023-07-19T15:17:43.091Z,29.80
2023-07-19T15:20:12.103Z,29.90
2023-07-19T15:22:45.900Z,29.90
2023-07-19T15:25:16.270Z,29.70
2023-07-19T15:27:44.446Z,29.70
2023-07-19T15:30:14.437Z,29.70
2023-07-19T15:32:43.162Z,29.70
2023-07-19T15:35:11.836Z,29.60
2023-07-19T15:37:39.954Z,29.50
2023-07-19T15:40:09.480Z,29.30
2023-07-19T15:42:37.681Z,29.30
2023-07-19T15:45:06.318Z,29.40
2023-07-19T15:47:35.898Z,29.30
2023-07-19T15:50:05.311Z,29.20
2023-07-19T15:52:33.471Z,29.10
2023-07-19T15:55:01.777Z,29.20
2023-07-19T15:57:29.880Z,29.00
2023-07-19T15:59:57.949Z,29.00
2023-07-19T16:02:26.242Z,28.90
2023-07-19T16:04:55.681Z,28.80
2023-07-19T16:07:25.339Z,28.70
2023-07-19T16:09:53.407Z,28.70
2023-07-19T16:12:21.549Z,28.70
2023-07-19T16:14:49.857Z,28.60
2023-07-19T16:17:17.903Z,28.60
2023-07-19T16:19:45.949Z,28.60
2023-07-19T16:22:15.498Z,28.60
2023-07-19T16:24:43.591Z,28.60
2023-07-19T16:27:11.717Z,28.60
2023-07-19T16:29:39.761Z,28.60
2023-07-19T16:32:09.255Z,28.70
2023-07-19T16:34:37.500Z,28.70
2023-07-19T16:37:07.411Z,28.60
2023-07-19T16:39:37.051Z,28.30
2023-07-19T16:42:06.531Z,28.30
2023-07-19T16:44:34.672Z,28.20
2023-07-19T16:47:02.846Z,28.10
2023-07-19T16:49:31.080Z,28.10
2023-07-19T16:51:59.262Z,27.90
2023-07-19T16:54:27.384Z,27.90
2023-07-19T16:56:56.888Z,27.80
2023-07-19T16:59:25.179Z,27.70
2023-07-19T17:01:53.335Z,27.60
2023-07-19T17:04:21.467Z,27.50
2023-07-19T17:06:49.632Z,27.50
2023-07-19T17:09:17.794Z,27.40
2023-07-19T17:11:45.925Z,27.30
2023-07-19T17:14:15.400Z,27.20
2023-07-19T17:16:49.588Z,27.20
2023-07-19T17:19:23.439Z,27.10
2023-07-19T17:21:51.610Z,27.00
2023-07-19T17:24:19.721Z,26.90
2023-07-19T17:26:47.772Z,26.80
2023-07-19T17:29:17.176Z,26.60
2023-07-19T17:31:46.165Z,26.50
2023-07-19T17:34:14.333Z,26.30
2023-07-19T17:36:42.537Z,26.20
2023-07-19T17:39:11.382Z,26.00
2023-07-19T17:41:39.456Z,26.00
2023-07-19T17:44:08.428Z,25.90
2023-07-19T17:46:39.036Z,25.80
2023-07-19T17:49:07.334Z,25.80
2023-07-19T17:51:35.451Z,25.80
2023-07-19T17:54:03.633Z,25.80
2023-07-19T17:56:31.734Z,25.80
2023-07-19T17:58:59.875Z,25.70
2023-07-19T18:01:28.055Z,25.60
2023-07-19T18:03:57.726Z,25.60
2023-07-19T18:06:25.945Z,25.50
2023-07-19T18:08:54.149Z,25.40
2023-07-19T18:11:23.263Z,25.30
2023-07-19T18:13:51.858Z,25.20
2023-07-19T18:16:20.161Z,25.20
2023-07-19T18:18:48.329Z,25.10
2023-07-19T18:21:18.188Z,25.00
2023-07-19T18:23:46.319Z,24.90
2023-07-19T18:26:14.560Z,24.90
2023-07-19T18:28:42.754Z,24.90
2023-07-19T18:31:11.007Z,24.80
2023-07-19T18:33:40.168Z,24.70
2023-07-19T18:36:08.441Z,24.70
2023-07-19T18:38:39.282Z,24.70
2023-07-19T18:41:08.426Z,24.60
2023-07-19T18:43:36.787Z,24.50
2023-07-19T18:46:04.990Z,24.40
2023-07-19T18:48:34.167Z,24.40
2023-07-19T18:51:02.483Z,24.30
2023-07-19T18:53:36.848Z,24.20
2023-07-19T18:56:06.903Z,24.20
2023-07-19T18:58:35.260Z,24.00
2023-07-19T19:01:03.874Z,23.90
2023-07-19T19:03:32.107Z,23.80
2023-07-19T19:06:00.439Z,23.80
2023-07-19T19:08:28.624Z,23.70
2023-07-19T19:10:56.957Z,23.60
2023-07-19T19:13:26.475Z,23.60
2023-07-19T19:15:54.872Z,23.50
2023-07-19T19:18:23.116Z,23.40
2023-07-19T19:20:52.196Z,23.30
2023-07-19T19:23:21.144Z,23.20
2023-07-19T19:25:50.321Z,23.10
2023-07-19T19:28:18.766Z,23.00
2023-07-19T19:30:48.445Z,22.90
2023-07-19T19:33:16.734Z,22.80
2023-07-19T19:35:44.887Z,22.70
2023-07-19T19:38:13.108Z,22.70
2023-07-19T19:40:41.370Z,22.70
2023-07-19T19:43:10.161Z,22.60
2023-07-19T19:45:38.345Z,22.50
2023-07-19T19:48:08.263Z,22.50
2023-07-19T19:50:36.822Z,22.40
2023-07-19T19:53:10.200Z,22.30
2023-07-19T19:58:11.361Z,22.20
2023-07-19T20:00:41.455Z,22.10
2023-07-19T20:08:13.620Z,21.90
2023-07-19T20:13:26.938Z,21.90
2023-07-19T20:15:57.263Z,21.80
2023-07-19T20:18:47.218Z,21.80
2023-07-19T20:21:16.651Z,21.70
2023-07-19T20:23:44.946Z,21.60
2023-07-19T20:26:15.387Z,21.50
2023-07-19T20:28:47.639Z,21.50
2023-07-19T20:34:33.821Z,21.40
2023-07-19T20:41:39.353Z,21.10
2023-07-19T20:44:07.536Z,21.00
2023-07-19T20:49:13.235Z,20.90
2023-07-19T20:51:42.991Z,20.80
2023-07-19T20:54:11.362Z,20.70
2023-07-19T20:56:39.841Z,20.60
2023-07-19T20:59:08.107Z,20.60
2023-07-19T21:01:38.125Z,20.50
2023-07-19T21:04:08.181Z,20.40
2023-07-19T21:06:36.999Z,20.40
2023-07-19T21:09:05.628Z,20.30
2023-07-19T21:11:33.867Z,20.20
2023-07-19T21:14:02.201Z,20.20
2023-07-19T21:16:30.672Z,20.20
2023-07-19T21:18:59.860Z,20.20
2023-07-19T21:21:29.332Z,20.10
2023-07-19T21:23:57.624Z,20.20
2023-07-19T21:26:25.803Z,20.40
2023-07-19T21:28:53.952Z,20.50
2023-07-19T21:31:23.549Z,20.60
2023-07-19T21:33:51.854Z,20.60
2023-07-19T21:36:20.362Z,20.50
2023-07-19T21:38:50.163Z,20.50
2023-07-19T21:41:18.616Z,20.50
2023-07-19T21:43:47.599Z,20.40
2023-07-19T21:46:15.836Z,20.30
2023-07-19T21:48:44.259Z,20.20
2023-07-19T21:51:12.470Z,20.00
2023-07-19T21:53:40.627Z,19.90
2023-07-19T21:56:10.114Z,19.90
2023-07-19T21:58:38.399Z,19.80
2023-07-19T22:01:06.642Z,19.70
2023-07-19T22:03:34.893Z,19.70
2023-07-19T22:06:03.200Z,19.60
2023-07-19T22:08:32.058Z,19.60
2023-07-19T22:11:00.280Z,19.50
2023-07-19T22:13:30.001Z,19.40
2023-07-19T22:15:58.298Z,19.40
2023-07-19T22:18:27.245Z,19.30
2023-07-19T22:21:07.105Z,19.30
2023-07-19T22:23:44.302Z,19.30
2023-07-19T22:26:12.536Z,19.40
2023-07-19T22:28:42.416Z,19.40
2023-07-19T22:31:10.716Z,19.30
2023-07-19T22:33:39.091Z,19.10
2023-07-19T22:36:07.780Z,19.00
2023-07-19T22:38:35.903Z,18.90
2023-07-19T22:41:04.119Z,18.80
2023-07-19T22:43:33.528Z,18.80
2023-07-19T22:46:03.009Z,18.70
2023-07-19T22:48:31.129Z,18.70
2023-07-19T22:50:59.351Z,18.60
2023-07-19T22:53:29.845Z,18.60
2023-07-19T22:55:59.712Z,18.50
2023-07-19T22:58:27.839Z,18.50
2023-07-19T23:00:56.040Z,18.50
2023-07-19T23:03:26.048Z,18.50
2023-07-19T23:05:54.400Z,18.40
2023-07-19T23:08:22.629Z,18.40
2023-07-19T23:10:50.826Z,18.40
2023-07-19T23:13:23.862Z,18.40
2023-07-19T23:15:53.765Z,18.40
2023-07-19T23:18:23.218Z,18.50
2023-07-19T23:20:54.118Z,18.50
2023-07-19T23:23:22.741Z,18.50
2023-07-19T23:25:51.765Z,18.50
2023-07-19T23:28:20.194Z,18.50
2023-07-19T23:30:48.648Z,18.50
2023-07-19T23:33:16.781Z,18.50
2023-07-19T23:35:44.984Z,18.50
2023-07-19T23:38:14.548Z,18.50
2023-07-19T23:40:42.811Z,18.50
2023-07-19T23:43:11.012Z,18.50
2023-07-19T23:45:39.192Z,18.50
2023-07-19T23:48:07.851Z,18.50
2023-07-19T23:50:36.048Z,18.50
2023-07-19T23:53:07.168Z,18.50
2023-07-19T23:55:36.705Z,18.60
2023-07-19T23:58:04.839Z,18.60
